Date,TemperatureHighF,TemperatureAvgF,TemperatureLowF,DewpointHighF,DewpointAvgF,DewpointLowF,HumidityHigh,HumidityAvg,HumidityLow,PressureMaxIn,PressureMinIn,WindSpeedMaxMPH,WindSpeedAvgMPH,GustSpeedMaxMPH,PrecipitationSumIn
2013-1-1,23.6,18.8,11.1,19.9,15.6,7.5,94,87,79,30.20,30.05,11,6,18,0.02
2013-1-2,31.6,20.8,10.7,25.9,16.9,7.1,92,85,74,30.16,30.02,17,8,19,0.00
2013-1-3,31.6,24.4,17.8,24.3,20.1,15.9,94,84,69,30.32,30.16,14,6,14,0.01
2013-1-4,38.9,27.1,16.9,26.6,20.0,12.9,88,75,57,30.25,30.03,21,10,21,0.01
2013-1-5,38.6,35.1,31.9,30.1,28.5,25.3,85,77,70,30.03,29.92,31,16,32,0.01
2013-1-6,46.7,33.9,21.3,27.3,22.5,15.8,81,64,45,30.24,30.02,29,8,29,0.00
2013-1-7,50.5,40.5,32.7,27.4,24.7,21.6,65,54,38,30.02,29.79,36,19,39,0.00
2013-1-8,54.1,40.7,34.3,32.8,28.7,25.0,76,63,41,30.03,29.72,33,15,36,0.00
2013-1-9,53.2,39.1,26.7,34.0,29.4,23.1,89,70,45,30.28,30.03,19,4,19,0.00
2013-1-10,46.2,42.3,37.6,46.2,40.8,31.0,100,95,72,30.10,29.51,19,6,19,0.44
2013-1-11,56.6,47.9,34.0,46.5,40.6,17.8,100,79,27,29.69,29.26,39,20,43,0.01
2013-1-12,34.0,24.5,16.4,26.6,13.6,7.8,74,63,52,30.03,29.69,31,9,31,0.00
2013-1-13,26.9,17.5,10.0,8.8,5.7,3.0,75,60,42,30.25,30.02,20,7,21,0.00
2013-1-14,30.0,18.8,10.7,12.7,8.2,5.0,79,64,38,30.38,30.22,8,2,8,0.00
2013-1-15,22.9,19.2,17.7,12.2,10.9,9.9,74,70,59,30.23,30.18,6,2,6,0.00
2013-1-16,55.0,35.4,20.5,31.5,23.2,13.4,80,63,39,30.10,29.87,19,8,21,0.00
2013-1-17,55.6,39.6,26.3,31.9,27.2,22.7,87,64,33,30.33,30.10,21,6,21,0.00
2013-1-18,61.2,46.3,35.3,32.0,29.3,27.4,73,54,28,30.17,29.80,41,20,41,0.00
2013-1-19,62.0,46.1,32.2,31.9,26.9,22.5,79,51,23,30.08,29.77,24,12,24,0.00
2013-1-20,38.9,29.4,18.6,27.0,17.9,8.5,80,63,39,30.29,30.08,20,8,20,0.00
2013-1-21,36.6,22.6,14.9,16.6,12.0,8.0,81,65,40,30.30,30.14,18,6,19,0.00
2013-1-22,37.5,19.2,12.3,16.0,9.2,6.8,79,66,40,30.19,30.06,18,7,18,0.00
2013-1-23,46.5,31.2,20.8,26.9,19.0,13.2,75,61,41,30.25,30.00,24,9,24,0.00
2013-1-24,29.0,20.8,12.6,16.6,7.7,1.2,77,59,31,30.32,30.02,20,9,20,0.00
2013-1-25,27.8,23.8,19.5,17.4,14.5,12.4,77,68,60,30.08,30.01,13,3,13,0.00
2013-1-26,59.2,46.5,33.8,39.2,26.8,17.8,86,49,20,30.05,29.78,23,9,31,0.02
2013-1-27,64.7,49.1,40.9,54.5,44.4,37.3,100,85,56,29.77,29.46,31,15,41,0.01
2013-1-28,72.7,55.3,36.5,59.0,45.9,35.7,100,75,29,29.64,29.35,29,15,42,0.01
2013-1-29,63.7,37.8,31.9,58.8,34.2,30.1,99,87,66,29.51,29.33,26,12,35,0.00
2013-1-30,31.9,29.5,22.5,31.5,29.1,21.5,100,99,96,29.75,29.51,34,17,35,0.00
2013-1-31,24.5,18.5,12.3,18.2,9.7,3.4,83,68,54,30.34,29.78,22,8,26,0.00
2013-2-1,34.9,20.2,9.2,19.7,9.6,3.0,78,64,45,30.31,29.97,33,10,33,0.00
2013-2-2,52.8,37.3,26.1,35.0,27.8,19.5,89,69,43,30.09,29.97,21,10,22,0.10
2013-2-3,53.9,41.5,31.5,29.8,25.3,21.0,72,54,28,30.10,29.60,31,10,31,0.00
2013-2-4,48.9,39.3,28.5,30.9,28.6,24.3,85,66,47,29.83,29.58,28,9,29,0.00
2013-2-5,59.8,41.3,28.5,31.6,27.7,24.2,86,63,28,29.88,29.73,20,8,20,0.00
2013-2-6,59.5,45.4,34.9,52.5,36.9,26.7,97,73,45,29.86,29.62,36,15,37,0.00
2013-2-7,54.7,47.3,31.5,54.2,39.7,27.8,99,77,39,30.07,29.61,26,11,28,0.87
2013-2-8,39.8,31.3,27.2,35.3,28.9,25.6,100,91,75,30.20,29.96,24,6,24,0.00
2013-2-9,50.5,39.4,34.0,40.6,34.6,30.8,97,83,67,29.96,29.41,34,14,34,0.02
2013-2-10,46.1,40.1,33.1,45.5,30.6,22.6,99,70,51,29.84,29.22,47,22,48,0.01
2013-2-11,44.2,34.8,27.5,22.9,19.4,16.8,71,55,35,30.07,29.84,24,8,25,0.00
2013-2-12,41.3,33.7,28.1,25.5,22.6,17.8,85,64,47,30.02,29.81,14,5,16,0.00
2013-2-13,56.5,38.0,24.2,26.6,22.6,18.0,89,59,26,29.82,29.67,27,10,27,0.00
2013-2-14,47.0,38.3,27.6,31.9,26.4,17.6,81,63,37,30.16,29.72,32,10,32,0.00
2013-2-15,40.6,28.8,18.3,19.2,15.9,11.4,85,61,37,30.29,30.15,29,8,29,0.00
2013-2-16,50.2,29.1,15.1,27.5,16.7,10.1,82,63,31,30.23,29.83,34,9,35,0.00
2013-2-17,67.3,47.3,26.6,33.1,27.7,22.7,86,53,22,29.83,29.30,31,11,33,0.00
2013-2-18,53.3,44.0,26.0,32.3,26.3,15.9,68,50,36,29.99,29.21,43,17,43,0.00
2013-2-19,38.3,28.6,21.8,17.7,13.0,3.0,73,54,30,30.21,29.99,18,8,19,0.00
2013-2-20,26.9,22.7,20.3,24.1,12.6,2.8,93,67,41,30.15,29.91,22,12,24,0.00
2013-2-21,23.5,21.2,15.6,20.8,19.0,13.4,94,91,74,29.92,29.61,22,12,24,0.00
2013-2-22,23.2,15.3,10.9,18.5,11.7,7.5,92,86,79,29.99,29.76,17,8,18,0.04
2013-2-23,33.1,20.4,8.3,28.2,15.9,5.0,88,83,76,29.97,29.76,21,7,21,0.03
2013-2-24,38.5,30.5,20.5,29.8,23.6,15.4,86,75,66,29.79,29.68,20,11,22,0.01
2013-2-25,34.7,32.6,30.1,32.9,30.8,27.3,100,93,81,29.79,29.62,30,16,30,0.13
2013-2-26,35.5,30.1,25.8,27.5,25.8,23.0,93,84,69,29.79,29.61,21,10,25,0.09
2013-2-27,39.2,30.8,26.3,27.5,25.5,22.2,94,82,55,30.01,29.78,28,11,28,0.03
2013-2-28,35.9,31.9,27.2,26.8,25.1,22.8,85,76,65,30.09,30.00,19,8,20,0.00
2013-3-1,34.3,29.4,22.7,25.2,21.5,16.3,81,73,58,30.22,30.07,22,8,22,0.00
2013-3-2,36.8,26.8,16.1,26.5,20.2,12.8,89,77,58,30.24,29.96,14,4,14,0.00
2013-3-3,46.5,37.6,29.7,36.5,30.3,24.0,81,75,67,29.96,29.44,19,9,20,0.00
2013-3-4,44.2,38.2,31.9,35.8,32.5,25.9,93,80,66,29.91,29.42,30,11,31,0.03
2013-3-5,41.9,32.7,26.1,25.9,17.4,12.0,65,54,37,30.24,29.91,32,14,36,0.00
2013-3-6,44.1,31.6,19.4,24.9,19.6,14.1,82,63,39,30.29,30.00,21,7,21,0.00
2013-3-7,63.7,45.2,29.8,31.4,26.5,23.1,79,52,25,30.00,29.81,28,13,30,0.00
2013-3-8,63.2,50.6,40.6,47.9,38.2,29.9,77,62,52,29.86,29.63,30,15,30,0.00
2013-3-9,61.3,53.6,40.2,55.8,50.5,37.1,98,89,73,29.63,29.32,39,16,39,0.23
2013-3-10,40.1,29.3,25.3,36.9,26.1,18.0,96,88,76,29.91,29.43,30,15,31,98.94
2013-3-11,43.2,30.3,16.5,29.4,18.7,11.7,81,63,40,29.90,29.80,20,8,21,100.01
2013-3-12,47.9,40.0,31.5,30.5,21.2,12.4,80,49,26,30.21,29.88,32,9,33,0.00
2013-3-13,55.0,39.2,23.8,31.7,23.8,14.8,79,57,31,30.29,30.00,29,8,29,0.00
2013-3-14,73.9,55.6,42.1,39.5,34.8,27.3,74,49,25,30.02,29.83,28,11,30,0.00
2013-3-15,73.2,54.1,47.4,42.7,38.8,35.8,74,58,27,29.83,29.61,21,12,22,0.00
2013-3-16,53.2,40.9,31.9,42.9,32.2,26.0,86,71,58,29.90,29.55,23,16,32,0.00
2013-3-17,39.5,34.3,29.7,34.5,29.5,25.2,96,83,73,29.88,29.55,15,8,20,0.01
2013-3-18,55.6,42.6,32.7,36.5,27.0,17.9,98,61,23,29.91,29.60,27,9,31,0.01
2013-3-19,35.8,30.3,28.5,20.2,17.6,15.1,63,59,51,30.00,29.90,12,5,13,0.00
2013-3-20,45.7,34.7,24.2,32.5,18.5,12.6,86,54,28,30.29,29.85,16,7,20,0.00
2013-3-21,47.0,36.6,30.3,27.4,17.6,10.1,87,48,26,29.85,29.57,32,16,33,0.00
2013-3-22,42.9,34.0,27.9,31.5,29.0,26.4,96,83,62,29.83,29.73,18,7,18,0.00
2013-3-23,32.7,31.6,28.7,32.4,30.1,28.4,100,94,88,29.86,29.74,33,13,33,0.02
2013-3-24,33.5,28.0,22.9,28.5,22.6,16.0,99,81,60,30.05,29.85,31,15,31,0.05
2013-3-25,33.4,27.0,22.4,19.2,16.9,15.3,78,66,48,30.25,30.05,29,12,30,0.00
2013-3-26,42.9,30.4,16.5,27.5,20.2,12.8,86,67,46,30.29,30.03,20,6,20,0.00
2013-3-27,57.2,43.4,31.6,34.4,27.9,23.8,77,56,34,30.04,29.90,27,8,27,0.00
2013-3-28,66.1,48.1,30.7,39.8,33.0,27.3,88,61,29,30.01,29.88,15,5,15,0.00
2013-3-29,71.1,54.9,42.3,51.5,44.6,37.5,86,70,41,29.97,29.79,24,9,24,0.00
2013-3-30,57.8,54.5,53.9,53.6,50.4,49.7,90,86,84,29.80,29.73,36,11,36,0.20
2013-3-31,66.3,53.9,43.1,47.0,37.4,25.9,93,59,23,29.85,29.73,19,7,21,0.05
2013-4-1,51.1,39.4,31.2,36.8,23.9,15.1,83,56,32,30.15,29.75,27,13,27,0.00
2013-4-2,49.8,40.1,32.4,29.2,21.9,16.4,65,50,28,30.16,30.04,20,6,20,0.00
2013-4-3,43.9,39.7,35.3,30.9,28.1,19.8,77,64,41,30.18,30.08,21,4,21,0.00
2013-4-4,47.9,39.8,36.3,35.5,32.9,30.0,89,76,60,30.08,30.02,11,4,12,0.00
2013-4-5,66.9,54.1,38.6,43.1,39.6,35.4,89,61,33,29.94,29.51,33,16,46,0.00
2013-4-6,76.0,62.8,53.6,47.0,42.3,36.5,74,50,25,29.62,29.41,36,17,48,0.00
2013-4-7,74.7,62.5,51.1,57.4,47.0,35.9,93,59,28,29.62,29.40,32,11,32,0.00
2013-4-8,76.0,63.7,57.5,60.5,58.3,55.8,97,84,50,29.45,29.33,28,11,28,0.00
2013-4-9,71.8,56.5,31.3,60.6,51.7,30.0,96,85,62,29.80,29.27,33,15,35,0.66
2013-4-10,31.2,29.5,28.5,30.2,27.9,26.5,96,94,91,29.89,29.69,0,0,0,0.01
2013-4-11,46.1,34.1,25.8,30.8,26.6,22.7,95,75,50,29.79,29.59,19,4,26,0.05
2013-4-12,56.2,40.8,28.8,33.7,28.5,23.6,82,64,39,29.86,29.70,20,8,22,0.00
2013-4-13,67.8,53.5,35.8,51.1,39.3,29.6,80,60,42,29.87,29.30,36,11,42,0.00
2013-4-14,69.6,61.8,50.2,52.2,38.8,23.4,65,45,19,29.55,29.15,52,22,53,0.00
2013-4-15,53.1,47.3,40.2,37.7,28.5,22.3,76,49,34,29.83,29.52,22,11,24,0.01
2013-4-16,46.0,41.8,37.0,36.4,29.6,26.4,82,62,49,29.97,29.77,27,14,27,0.00
2013-4-17,44.3,41.5,38.3,44.0,40.4,36.4,100,96,82,29.88,29.55,28,10,30,0.83
2013-4-18,38.6,35.3,31.2,38.3,29.9,24.3,99,81,62,29.90,29.59,34,17,35,0.08
2013-4-19,57.0,41.6,27.8,32.9,26.6,21.6,80,58,33,29.92,29.83,27,11,27,0.00
2013-4-20,54.7,39.4,32.1,34.7,28.5,25.5,80,66,44,29.96,29.90,27,10,27,0.00
2013-4-21,67.9,58.5,49.4,43.6,40.0,36.7,67,51,37,29.91,29.81,31,16,42,0.00
2013-4-22,58.6,49.7,34.1,51.5,43.2,31.7,92,79,61,30.00,29.69,33,12,36,0.19
2013-4-23,34.3,31.6,29.4,32.0,29.8,27.8,100,93,84,30.12,29.93,32,13,32,0.13
2013-4-24,57.8,40.8,25.0,34.3,28.7,22.1,90,66,32,30.12,29.97,26,8,26,0.02
2013-4-25,69.6,53.2,37.3,42.1,34.6,28.5,75,52,23,30.10,29.84,32,9,33,0.00
2013-4-26,58.3,51.8,48.2,49.9,46.2,37.8,100,82,50,29.98,29.84,29,11,31,0.11
2013-4-27,66.3,54.8,48.8,52.6,50.0,48.8,100,86,58,29.98,29.79,13,4,13,0.00
2013-4-28,79.8,63.0,47.9,57.2,51.9,46.9,98,71,36,29.80,29.49,32,14,32,0.00
2013-4-29,85.5,70.8,53.9,58.9,54.2,48.2,87,59,31,29.55,29.30,38,14,38,0.00
2013-4-30,84.5,73.3,63.4,59.9,55.7,49.5,74,55,38,29.49,29.34,45,21,47,0.00
2013-5-1,66.8,49.0,36.0,53.9,43.0,33.6,96,81,61,30.19,29.49,39,17,39,0.69
2013-5-2,50.7,39.1,33.2,35.8,32.1,20.8,99,80,35,30.36,30.15,37,17,37,0.54
2013-5-3,56.7,44.2,31.9,30.9,26.9,19.2,82,55,25,30.23,29.83,30,11,31,0.00
2013-5-4,45.8,42.9,39.8,39.3,33.5,25.8,92,70,52,29.95,29.75,34,14,34,0.00
2013-5-5,62.3,50.1,41.9,49.1,44.0,39.2,97,81,58,30.00,29.88,20,8,20,0.00
2013-5-6,66.6,52.9,40.5,52.0,47.2,39.5,100,83,58,29.97,29.83,12,3,13,0.00
2013-5-7,72.8,61.7,51.0,55.3,51.0,45.4,91,70,46,29.87,29.70,27,8,27,0.02
2013-5-8,76.8,65.9,56.6,62.7,57.1,52.9,96,75,53,29.79,29.58,41,11,41,0.47
2013-5-9,72.0,60.8,53.6,58.5,55.4,51.9,99,84,55,29.81,29.63,35,6,35,0.26
2013-5-10,71.3,59.2,54.2,55.1,51.0,44.7,95,77,41,29.91,29.79,22,8,22,0.00
2013-5-11,67.1,58.4,50.8,49.3,38.1,26.9,87,51,23,30.08,29.87,31,12,31,0.00
2013-5-12,68.4,54.8,42.3,46.3,37.6,29.1,84,53,37,30.09,29.88,22,8,22,0.04
2013-5-13,83.4,64.5,43.6,58.5,49.8,40.6,93,63,30,29.92,29.68,22,8,22,0.00
2013-5-14,92.9,77.2,62.9,56.7,49.5,42.9,64,41,19,29.68,29.52,41,19,42,0.00
2013-5-15,84.3,73.3,63.2,64.0,57.3,53.1,84,59,39,29.62,29.54,35,15,38,0.00
2013-5-16,79.2,67.0,60.5,64.8,60.4,56.8,100,82,50,29.67,29.55,18,6,18,0.00
2013-5-17,82.8,70.8,58.4,63.5,60.5,56.9,96,73,47,29.68,29.57,20,6,21,0.00
2013-5-18,84.7,73.4,63.9,71.3,66.9,57.5,96,81,59,29.64,29.39,39,12,46,0.14
2013-5-19,81.1,69.2,58.3,69.7,59.8,49.3,93,73,46,29.53,29.23,35,10,48,0.34
2013-5-20,76.0,63.6,54.4,61.8,55.5,46.0,93,76,53,29.58,29.42,20,7,20,0.00
2013-5-21,72.8,60.6,50.8,50.5,47.5,43.8,88,64,38,29.62,29.52,26,9,26,0.00
2013-5-22,74.2,61.2,48.6,53.2,48.8,44.3,89,65,44,29.79,29.60,24,8,24,0.00
2013-5-23,58.3,53.2,50.4,51.3,49.0,47.7,92,86,75,29.93,29.79,22,7,22,0.00
2013-5-24,76.5,65.1,53.6,64.8,57.2,51.2,94,77,60,30.00,29.79,21,12,27,0.00
2013-5-25,82.6,74.5,67.9,66.2,63.9,60.3,92,71,51,29.85,29.68,29,15,39,0.00
2013-5-26,83.4,73.9,67.3,68.8,66.0,63.2,89,77,59,29.75,29.56,28,16,37,0.00
2013-5-27,84.7,74.9,66.1,71.8,66.8,61.8,87,76,57,29.56,29.28,32,17,45,0.00
2013-5-28,88.6,78.1,69.6,73.4,68.0,65.1,92,72,54,29.48,29.29,37,14,37,0.12
2013-5-29,82.4,72.4,62.0,69.6,64.6,54.4,100,77,53,29.44,29.24,48,20,49,1.01
2013-5-30,78.1,64.8,58.3,62.2,58.7,53.2,100,82,51,29.49,29.36,29,8,30,0.95
2013-5-31,84.0,73.7,65.8,68.2,58.5,45.6,98,64,28,29.54,29.37,19,5,19,0.01
2013-6-1,70.8,62.6,53.9,57.6,49.5,46.0,79,63,52,29.87,29.53,29,12,29,0.00
2013-6-2,71.3,59.7,48.2,48.8,45.7,42.6,89,62,38,29.95,29.79,22,7,26,0.00
2013-6-3,69.6,56.0,50.7,53.9,50.3,47.6,95,82,55,29.81,29.72,24,10,24,0.00
2013-6-4,87.2,73.1,65.5,67.7,63.1,59.6,93,73,40,29.70,29.49,18,8,26,0.01
2013-6-5,70.6,65.1,59.3,65.7,59.0,53.4,100,82,57,29.84,29.66,26,10,36,0.79
2013-6-6,77.4,63.3,53.3,56.7,52.4,46.1,96,71,36,29.83,29.73,18,6,18,0.00
2013-6-7,78.5,66.8,53.8,57.4,52.9,49.2,89,63,39,29.82,29.67,13,3,13,0.00
2013-6-8,82.2,69.0,60.1,63.5,58.3,54.0,96,71,45,29.68,29.44,39,14,44,0.54
2013-6-9,87.4,71.6,56.0,63.3,57.0,48.8,98,65,27,29.70,29.58,22,7,22,0.00
2013-6-10,93.6,77.1,59.5,72.3,60.7,50.8,83,59,41,29.66,29.47,26,7,26,0.00
2013-6-11,96.1,84.9,70.6,65.4,59.6,54.8,67,44,26,29.59,29.44,40,17,40,0.00
2013-6-12,96.1,83.7,72.1,69.1,64.9,57.9,72,55,31,29.74,29.43,38,15,41,0.00
2013-6-13,86.7,71.8,59.2,64.6,57.6,53.5,83,63,41,29.86,29.71,24,9,25,0.00
2013-6-14,83.4,73.8,70.6,69.6,65.5,63.2,83,76,63,29.71,29.64,20,8,20,0.00
2013-6-15,90.3,78.2,71.3,70.3,64.1,60.8,86,63,39,29.74,29.56,25,10,35,0.04
2013-6-16,91.2,77.9,69.4,69.2,65.5,57.8,88,68,34,29.74,29.63,17,7,21,0.00
2013-6-17,81.8,72.5,65.6,69.4,66.4,63.2,96,82,56,29.77,29.52,26,8,31,0.14
2013-6-18,91.2,76.4,65.5,67.0,61.6,47.4,93,66,24,29.81,29.69,23,6,36,0.01
2013-6-19,87.6,76.9,63.4,69.0,62.5,57.9,91,64,40,29.76,29.65,26,9,26,0.00
2013-6-20,93.8,80.5,69.1,70.8,67.7,63.5,91,67,40,29.69,29.52,38,15,38,0.00
2013-6-21,95.9,83.9,76.5,70.1,66.8,62.8,70,58,35,29.63,29.55,36,16,36,0.00
2013-6-22,93.8,83.4,75.6,69.6,64.6,59.5,71,55,35,29.64,29.50,36,17,38,0.00
2013-6-23,94.9,81.6,74.2,68.7,65.1,59.3,77,59,33,29.60,29.50,29,11,31,0.00
2013-6-24,91.4,82.5,76.3,68.0,65.5,60.5,72,57,37,29.60,29.46,45,18,47,0.00
2013-6-25,96.8,84.7,74.7,71.2,66.7,55.6,79,57,32,29.60,29.34,51,20,51,0.16
2013-6-26,102.3,86.8,72.3,72.5,65.5,54.5,94,56,22,29.62,29.49,18,7,19,0.00
2013-6-27,105.1,86.3,73.9,74.0,69.5,57.1,91,62,27,29.73,29.52,38,7,38,0.00
2013-6-28,92.1,77.8,66.8,67.7,61.4,47.9,96,64,26,29.80,29.68,26,7,26,0.00
2013-6-29,87.8,76.6,62.4,58.6,52.3,45.0,80,46,25,29.75,29.67,33,11,34,0.00
2013-6-30,81.1,70.9,59.0,57.2,51.8,43.2,86,54,28,29.86,29.72,29,10,29,0.00
2013-7-1,82.4,69.7,54.8,54.1,47.9,37.3,87,50,25,29.96,29.86,24,7,24,0.00
2013-7-2,83.6,69.0,57.3,54.3,48.6,41.7,77,52,25,29.94,29.83,22,5,22,0.00
2013-7-3,87.0,72.7,61.6,54.2,48.6,41.9,66,45,21,29.88,29.71,20,6,22,0.00
2013-7-4,90.3,75.4,60.2,55.8,51.1,44.5,71,46,21,29.76,29.64,21,8,22,0.00
2013-7-5,92.3,79.6,68.6,60.4,56.4,51.7,72,47,27,29.68,29.57,38,14,38,0.01
2013-7-6,87.0,78.9,74.6,65.3,62.0,56.4,64,57,44,29.61,29.55,38,16,40,0.00
2013-7-7,98.7,84.7,76.3,63.9,60.6,53.9,62,46,23,29.66,29.58,38,19,38,0.00
2013-7-8,85.5,85.5,85.5,62.4,62.4,62.4,46,46,46,29.66,29.66,27,14,29,0.00
2013-7-9,106.2,88.2,73.2,68.5,65.2,58.2,85,50,21,29.76,29.53,25,12,39,0.24
2013-7-10,92.1,80.8,68.6,71.3,67.0,60.2,96,65,37,29.79,29.69,22,9,22,0.00
2013-7-11,88.8,75.1,67.6,70.1,65.1,62.1,96,72,47,29.88,29.68,30,10,30,0.39
2013-7-12,99.4,82.4,70.4,68.8,64.5,61.1,75,57,30,29.73,29.61,24,11,28,0.00
2013-7-13,96.6,84.7,76.8,71.2,68.7,67.1,74,60,41,29.70,29.60,26,11,26,0.00
2013-7-14,87.4,75.8,69.8,70.4,67.2,57.8,96,77,39,29.86,29.64,27,7,27,0.34
2013-7-15,86.3,72.2,63.9,72.0,62.8,58.1,92,74,42,29.94,29.86,26,5,26,0.24
2013-7-16,89.3,75.9,64.7,66.7,63.2,60.1,92,68,39,30.03,29.93,19,6,19,0.00
2013-7-17,90.7,78.6,68.8,71.6,67.3,65.1,96,71,44,30.07,29.93,16,4,18,0.00
2013-7-18,91.8,79.4,69.8,69.6,66.8,60.4,93,68,36,29.94,29.73,35,11,35,0.00
2013-7-19,96.1,81.6,71.6,67.6,65.4,61.3,82,61,33,29.76,29.60,28,11,28,0.01
2013-7-20,95.9,78.2,70.8,71.3,67.4,59.4,97,73,32,29.69,29.54,26,6,26,0.67
2013-7-21,86.3,76.4,69.8,71.7,69.5,67.0,98,81,57,29.67,29.54,18,4,18,0.05
2013-7-22,94.0,80.1,71.8,74.5,70.4,64.6,99,75,45,29.59,29.51,35,8,35,0.00
2013-7-23,92.9,76.8,69.6,68.5,65.6,62.1,88,70,37,29.75,29.56,25,9,28,0.01
2013-7-24,88.4,74.6,64.3,66.9,61.3,52.4,92,67,31,29.83,29.70,17,6,17,0.00
2013-7-25,79.8,72.0,68.9,72.5,65.7,59.6,97,81,65,29.83,29.75,21,5,21,0.39
2013-7-26,84.9,73.1,65.5,69.2,64.1,55.2,100,77,41,29.87,29.75,21,7,24,0.22
2013-7-27,69.6,62.6,58.6,59.0,55.6,52.5,94,78,55,29.95,29.79,16,5,16,0.05
2013-7-28,64.5,61.0,56.0,64.5,59.9,53.9,100,96,80,29.85,29.78,14,5,16,1.33
2013-7-29,72.5,67.5,62.9,72.3,66.6,60.7,100,97,85,29.80,29.68,18,6,18,1.88
2013-7-30,78.1,71.7,68.8,72.7,69.2,67.2,100,92,72,29.88,29.74,14,4,14,0.01
2013-7-31,88.2,74.5,65.2,73.2,67.7,64.7,100,82,48,29.92,29.82,10,1,10,0.01
2013-8-1,88.8,77.9,66.9,70.0,67.0,62.4,96,72,42,29.88,29.61,19,4,21,0.00
2013-8-2,77.4,76.1,73.7,67.2,66.3,65.4,80,72,67,29.61,29.58,29,17,30,0.02
2013-8-4,80.5,74.6,70.3,74.6,71.7,69.9,100,91,73,29.85,29.74,16,5,30,0.79
2013-8-5,85.9,76.2,70.8,75.1,72.2,65.7,100,88,63,29.76,29.56,22,5,31,0.05
2013-8-6,91.4,79.6,67.9,75.1,70.1,66.2,96,75,48,29.66,29.53,9,3,14,0.02
2013-8-7,85.9,76.3,69.9,75.0,70.8,67.0,97,84,64,29.72,29.55,21,6,33,0.14
2013-8-8,73.3,69.4,66.9,67.4,64.3,60.6,97,84,69,29.79,29.64,14,7,20,0.29
2013-8-9,78.1,70.6,66.8,66.1,61.7,50.6,94,74,53,29.92,29.76,12,4,17,0.00
2013-8-10,84.9,73.7,62.0,66.8,63.5,60.0,97,73,45,29.97,29.83,10,3,11,1.29
2013-8-11,86.1,75.7,66.1,69.8,66.4,63.2,95,75,50,29.89,29.76,16,5,17,0.00
2013-8-12,79.4,71.1,65.5,70.4,67.6,63.5,99,89,70,29.82,29.74,27,5,30,0.48
2013-8-13,78.5,71.7,66.1,71.1,67.2,61.4,98,86,66,29.91,29.78,12,4,14,0.10
2013-8-14,81.1,70.5,60.7,62.6,60.7,55.3,98,74,44,29.95,29.82,15,4,17,0.00
2013-8-15,82.4,68.7,62.6,68.8,62.2,59.5,96,81,59,29.85,29.69,27,8,29,0.21
2013-8-16,80.1,68.8,61.6,65.6,62.8,61.0,100,83,55,29.91,29.80,13,4,14,0.01
2013-8-17,67.8,62.8,60.7,61.2,59.7,58.6,94,90,78,29.95,29.91,12,7,13,0.00
2013-8-18,82.8,71.2,59.9,63.9,59.7,56.3,89,69,45,29.92,29.79,19,8,19,0.00
2013-8-19,86.7,75.3,64.8,67.7,64.4,61.5,90,71,49,29.85,29.71,26,8,26,0.00
2013-8-20,89.9,78.2,67.9,68.2,65.0,61.7,87,66,42,29.79,29.70,28,12,28,0.00
2013-8-21,92.7,78.0,67.4,67.2,65.1,62.5,90,67,39,29.78,29.71,29,11,29,0.00
2013-8-22,90.5,79.6,69.4,67.7,64.8,57.0,84,63,33,29.83,29.72,26,10,26,0.00
2013-8-23,91.4,80.0,70.4,71.9,69.3,67.2,93,72,48,29.80,29.69,24,10,24,0.00
2013-8-24,93.6,82.8,73.2,70.5,69.1,66.2,87,65,41,29.82,29.73,31,12,31,0.00
2013-8-25,93.8,82.9,73.9,70.4,68.6,66.0,84,64,41,29.89,29.80,29,11,29,0.00
2013-8-26,94.0,83.0,73.5,69.2,67.3,63.6,86,61,38,29.87,29.76,30,13,32,0.00
2013-8-27,93.8,81.7,72.1,66.9,64.0,54.8,82,58,28,29.79,29.71,30,13,32,0.00
2013-8-28,91.4,77.5,68.4,70.8,67.5,63.9,93,73,43,29.79,29.72,19,8,20,0.00
2013-8-29,97.8,84.3,72.8,70.8,66.4,58.8,85,59,29,29.75,29.66,24,9,27,0.00
2013-8-30,101.7,86.2,73.2,69.3,64.2,56.2,74,51,24,29.70,29.57,20,8,22,0.00
2013-8-31,99.0,84.9,73.0,74.9,69.8,63.0,92,63,35,29.63,29.52,17,7,19,0.00
2013-9-1,88.2,79.2,70.1,71.0,64.6,53.6,80,62,35,29.77,29.49,26,9,26,0.00
2013-9-2,84.1,72.5,58.3,60.5,58.0,54.8,92,63,40,29.87,29.77,16,4,16,0.00
2013-9-3,89.9,74.2,59.9,61.5,57.8,54.1,87,60,31,29.87,29.76,13,5,13,0.00
2013-9-4,89.0,75.5,62.4,61.3,57.9,53.3,83,57,31,29.92,29.80,16,5,16,0.00
2013-9-5,92.5,78.5,66.1,65.3,61.7,58.8,81,59,34,29.92,29.82,16,6,17,0.00
2013-9-6,96.6,80.7,68.6,65.6,62.9,56.9,80,57,27,29.85,29.68,20,7,20,0.00
2013-9-7,100.7,85.5,72.7,66.5,63.5,55.5,76,51,23,29.71,29.61,22,10,22,0.00
2013-9-8,100.4,86.4,74.9,64.7,61.7,56.9,65,46,24,29.65,29.55,26,9,26,0.00
2013-9-9,93.8,83.1,72.0,63.7,58.1,51.4,65,45,25,29.66,29.58,35,14,38,0.00
2013-9-10,93.6,82.6,73.0,63.8,59.8,56.4,64,47,31,29.79,29.64,37,15,37,0.00
2013-9-11,93.2,80.0,71.3,69.8,62.4,57.1,94,57,32,29.88,29.75,30,8,30,0.01
2013-9-12,77.6,71.8,67.9,71.2,68.2,60.4,100,89,70,29.95,29.85,16,4,16,0.24
2013-9-13,74.0,67.2,59.6,60.3,52.3,46.2,80,60,38,29.97,29.82,16,6,16,0.00
2013-9-14,82.0,69.7,57.3,62.2,55.8,50.8,80,63,42,29.84,29.65,21,8,22,0.00
2013-9-15,83.8,72.0,62.4,67.5,62.0,57.5,85,71,52,29.94,29.65,33,11,33,0.00
2013-9-16,62.4,60.6,58.9,62.4,59.2,57.0,100,95,84,30.01,29.91,22,9,22,0.04
2013-9-17,83.0,70.9,62.3,69.8,65.7,62.3,100,86,58,29.95,29.64,29,10,29,1.18
2013-9-18,91.8,79.6,69.1,67.3,64.2,59.1,87,62,35,29.68,29.48,41,18,43,0.00
2013-9-19,87.8,76.3,65.3,67.2,62.4,54.7,76,63,46,29.79,29.52,32,14,34,0.00
2013-9-20,76.1,64.1,54.7,53.8,48.7,44.3,89,60,33,29.93,29.77,19,6,19,0.00
2013-9-21,84.3,68.0,53.5,53.9,48.6,41.9,82,55,23,29.81,29.64,14,5,17,0.00
2013-9-22,80.3,68.0,56.2,53.4,49.2,43.9,84,55,29,29.70,29.56,28,12,29,0.00
2013-9-23,79.2,66.2,52.8,52.9,49.5,45.9,83,57,33,29.58,29.43,34,14,34,0.00
2013-9-24,75.1,66.6,58.4,56.2,53.8,51.5,79,64,49,29.69,29.50,34,14,34,0.00
2013-9-25,83.4,67.0,51.3,59.9,54.2,49.9,97,68,32,29.72,29.49,20,8,27,0.00
2013-9-26,91.4,77.0,63.1,61.1,56.2,52.5,79,52,27,29.52,29.44,23,16,36,0.00
2013-9-27,87.2,78.0,69.9,63.7,58.3,54.8,61,51,38,29.59,29.48,35,15,36,0.00
2013-9-28,76.3,63.2,52.6,66.5,49.0,40.3,93,63,34,29.90,29.44,34,11,36,0.21
2013-9-29,76.8,61.4,48.6,47.2,41.5,33.6,77,53,23,29.90,29.70,16,4,17,0.00
2013-9-30,81.6,65.2,49.5,52.7,48.9,45.0,90,60,28,29.71,29.55,25,8,25,0.00
2013-10-1,86.3,70.5,58.0,61.7,54.3,49.9,78,58,36,29.71,29.57,22,8,22,0.00
2013-10-2,84.5,71.9,65.3,68.1,63.9,60.4,97,77,51,29.71,29.57,25,9,28,0.00
2013-10-3,87.6,76.3,63.9,67.0,65.1,60.6,94,70,45,29.58,29.39,34,12,38,0.00
2013-10-4,88.8,73.0,50.2,66.9,56.6,32.3,82,58,28,29.81,29.40,44,19,48,0.02
2013-10-5,61.0,50.9,44.6,32.9,31.1,28.7,62,47,31,29.91,29.77,34,14,34,0.00
2013-10-6,69.1,54.3,43.6,38.1,30.7,17.8,66,44,14,29.88,29.76,31,13,31,0.00
2013-10-7,76.0,57.9,41.3,39.3,34.7,28.1,76,45,21,29.99,29.83,19,8,21,0.00
2013-10-8,78.5,62.8,54.7,48.6,41.1,38.1,65,47,26,29.83,29.68,39,15,39,0.00
2013-10-9,80.7,64.1,54.2,53.9,48.7,44.8,77,60,29,29.75,29.68,34,13,34,0.00
2013-10-10,81.6,66.7,58.1,57.8,54.3,51.7,80,66,41,29.74,29.51,30,12,32,0.00
2013-10-11,67.8,66.0,64.0,57.3,55.8,54.6,76,70,63,29.53,29.45,32,16,36,0.00
2013-10-12,69.1,57.3,45.4,43.5,36.9,30.4,82,50,25,30.06,29.71,19,6,19,0.00
2013-10-13,70.9,57.9,41.1,39.3,35.7,28.0,80,47,22,30.16,29.97,29,10,29,0.00
2013-10-14,64.2,60.9,55.0,59.9,52.3,37.7,96,75,40,29.97,29.53,31,15,35,0.15
2013-10-15,58.9,50.4,42.8,48.3,38.0,33.8,83,64,42,29.97,29.72,29,12,29,0.00
2013-10-16,55.7,48.0,39.9,37.4,34.5,28.9,83,61,37,29.98,29.83,18,6,20,0.00
2013-10-17,65.8,50.4,38.3,40.7,36.6,30.0,87,63,28,29.91,29.75,21,8,21,0.00
2013-10-18,43.2,36.6,32.5,36.2,33.5,30.4,100,89,74,30.05,29.88,21,5,21,0.34
2013-10-19,65.3,47.1,32.7,40.1,35.5,31.7,100,69,31,29.96,29.68,28,11,28,0.04
2013-10-20,68.8,53.7,44.8,42.6,37.2,34.2,68,55,29,29.80,29.60,24,10,24,0.00
2013-10-21,61.2,49.7,37.9,39.1,35.1,29.7,87,59,35,29.96,29.80,21,6,21,0.00
2013-10-22,66.3,53.9,42.3,42.7,38.1,34.4,78,57,34,29.94,29.75,28,10,28,0.00
2013-10-23,67.8,50.3,36.2,42.3,37.3,33.0,90,64,37,30.00,29.80,28,6,28,0.00
2013-10-24,50.7,43.3,37.3,37.9,30.6,21.9,89,63,33,30.26,30.00,17,5,17,0.00
2013-10-25,58.1,46.1,34.6,38.7,28.0,22.1,72,52,27,30.25,29.92,25,9,30,0.00
2013-10-26,61.3,51.4,42.8,43.3,32.5,21.5,88,53,23,30.03,29.86,24,9,25,0.00
2013-10-27,68.8,48.9,32.7,33.1,28.7,23.9,76,49,25,29.99,29.70,28,9,28,0.00
2013-10-28,63.2,54.6,42.6,54.0,47.4,30.7,95,77,47,29.85,29.71,24,10,24,0.00
2013-10-29,67.9,57.7,51.9,67.3,55.6,48.5,100,93,77,29.80,29.65,27,9,27,0.44
2013-10-30,52.3,50.1,48.6,52.3,49.5,46.4,100,98,89,29.77,29.55,14,4,16,0.13
2013-10-31,63.1,51.1,43.6,47.5,40.9,33.2,97,71,34,29.58,29.41,28,8,30,0.05
2013-11-1,46.2,45.5,44.5,36.2,35.6,34.8,69,68,66,29.56,29.53,10,7,11,0.00
2013-11-2,62.0,46.4,33.7,33.2,30.1,25.4,81,56,25,30.10,29.91,12,5,17,0.00
2013-11-3,62.9,52.0,42.9,38.5,34.2,29.9,64,51,36,29.92,29.52,49,20,49,0.00
2013-11-4,62.1,53.7,48.5,43.1,40.5,37.3,78,62,44,29.88,29.51,44,14,44,0.00
2013-11-5,59.9,50.7,36.9,58.1,48.2,33.2,100,91,72,29.91,29.59,32,12,32,0.32
2013-11-6,45.2,37.3,32.9,34.2,32.0,29.5,88,81,63,30.17,29.90,25,8,25,0.00
2013-11-7,59.2,44.1,32.5,35.8,32.6,28.0,89,66,36,30.29,30.08,16,6,16,0.00
2013-11-8,67.3,53.2,40.2,34.9,32.3,27.9,78,48,25,30.08,29.60,41,21,51,0.00
2013-11-9,50.2,44.3,40.1,35.2,34.4,33.6,79,69,55,29.91,29.73,25,6,26,0.00
2013-11-10,62.3,49.7,37.8,48.7,38.3,31.6,84,66,42,30.20,29.99,16,9,24,0.00
2013-11-11,52.5,42.0,26.7,51.4,37.7,10.8,99,85,50,30.55,29.94,21,11,32,0.01
2013-11-12,36.6,25.2,15.9,13.4,9.8,3.9,81,54,27,30.78,30.52,16,5,25,0.00
2013-11-13,52.3,37.6,22.4,27.0,18.8,12.4,66,48,31,30.52,29.90,37,18,41,0.00
2013-11-14,56.5,44.5,37.0,32.0,25.2,16.0,69,47,35,29.90,29.73,36,14,36,0.00
2013-11-15,58.6,46.9,31.9,46.2,36.5,27.8,86,68,47,29.73,29.38,39,11,39,0.00
2013-11-16,73.9,62.0,54.4,51.0,44.4,29.3,81,56,28,29.38,29.07,46,19,46,0.00
2013-11-17,63.7,54.1,38.9,45.5,27.6,9.8,69,39,13,29.95,29.07,44,17,44,0.00
2013-11-18,59.3,44.1,32.4,29.3,23.8,17.7,77,49,20,30.12,29.90,17,6,17,0.00
2013-11-19,61.5,50.1,38.8,33.3,26.9,23.6,62,42,25,30.01,29.62,37,13,40,0.00
2013-11-20,64.5,53.8,48.0,47.3,36.3,25.9,83,53,37,29.69,29.53,34,13,36,0.00
2013-11-21,51.6,32.2,22.4,45.1,27.8,16.9,91,83,78,30.42,29.69,30,13,32,0.06
2013-11-22,28.4,23.4,18.3,17.2,13.6,11.1,80,66,49,30.58,30.41,26,8,28,0.00
2013-11-23,28.4,24.7,16.5,19.2,13.7,7.6,72,63,48,30.67,30.50,21,7,22,0.00
2013-11-24,28.2,21.9,14.6,13.1,8.0,0.9,80,57,32,30.61,30.12,26,5,27,0.00
2013-11-25,38.8,30.3,26.3,26.2,20.5,12.3,86,67,55,30.12,30.03,24,8,26,0.00
2013-11-26,37.2,28.4,19.5,24.3,15.2,5.4,85,60,27,30.32,30.08,31,9,31,0.01
2013-11-27,38.8,23.8,12.1,20.6,10.8,5.1,74,59,34,30.32,29.94,34,7,34,0.00
2013-11-28,38.2,30.4,23.5,23.1,20.9,17.8,82,68,51,30.30,29.94,21,8,26,0.00
2013-11-29,55.1,36.9,19.7,30.3,23.7,15.1,83,62,34,30.30,29.95,31,8,31,0.00
2013-11-30,58.3,42.9,28.8,34.7,30.9,25.1,88,64,39,29.97,29.88,21,5,22,0.00
2013-12-1,59.9,43.1,27.2,37.6,32.8,24.4,94,69,40,29.93,29.64,13,2,16,0.00
2013-12-2,64.2,48.1,36.0,37.8,33.3,29.7,79,59,29,29.64,29.36,21,9,21,0.00
2013-12-3,68.9,49.1,37.8,38.2,33.6,29.2,80,59,23,29.41,29.27,21,7,21,0.00
2013-12-4,37.6,28.2,22.9,34.0,24.9,17.1,94,88,77,29.69,29.37,26,12,28,0.01
2013-12-6,15.7,11.7,5.0,-0.3,-6.3,-8.6,60,44,33,30.56,30.28,14,8,22,0.00
2013-12-7,18.9,10.5,-0.4,5.8,-2.3,-7.0,74,57,38,30.61,30.16,11,5,14,0.00
2013-12-8,21.0,17.9,8.6,18.1,12.7,4.1,90,81,52,30.15,29.83,12,5,17,0.00
2013-12-9,18.1,9.9,4.1,5.5,1.9,-3.0,86,70,54,30.32,30.09,12,4,21,0.00
2013-12-10,41.9,25.5,10.7,18.3,10.2,2.9,70,54,29,30.20,29.96,13,8,20,0.00
2013-12-11,26.3,20.5,14.3,20.1,6.7,-3.0,78,57,30,30.54,30.05,18,8,26,0.00
2013-12-12,48.2,29.8,15.4,21.3,13.0,0.7,75,50,30,30.42,29.91,22,12,27,0.00
2013-12-13,48.2,36.8,27.9,33.9,28.5,21.0,82,72,57,29.91,29.59,26,9,26,0.00
2013-12-14,34.4,26.0,20.2,23.3,18.2,14.6,83,73,52,30.12,29.82,27,9,27,0.00
2013-12-15,59.0,40.1,21.8,25.1,22.1,16.9,81,52,25,30.06,29.82,22,12,24,0.00
2013-12-16,62.1,45.4,32.9,27.9,23.3,19.8,65,44,23,29.96,29.81,16,7,17,0.00
2013-12-17,52.6,38.6,24.1,29.7,22.7,18.1,89,57,27,30.19,29.96,22,7,22,0.00
2013-12-18,66.3,48.2,34.9,35.9,27.2,20.4,56,45,24,30.00,29.51,37,18,40,0.00
2013-12-19,57.8,47.3,20.8,45.4,37.7,16.4,85,70,54,29.67,29.39,30,10,32,0.00
2013-12-20,20.8,17.8,14.0,16.5,11.7,9.9,89,77,67,29.90,29.66,25,6,28,0.00
2013-12-21,23.8,21.7,19.9,21.0,16.2,11.8,93,79,69,29.78,29.54,20,7,20,0.00
2013-12-22,25.1,19.6,12.3,20.6,16.4,8.9,93,87,82,30.24,29.70,19,6,20,0.05
2013-12-23,15.9,11.3,5.8,10.4,6.9,2.0,87,82,78,30.52,30.24,13,3,13,0.00
2013-12-24,29.7,20.5,11.4,29.0,18.0,7.0,98,90,82,30.41,29.99,27,9,30,0.00
2013-12-25,43.2,31.1,21.9,36.4,26.3,19.4,99,84,54,30.22,30.11,17,7,17,0.13
2013-12-26,41.6,32.9,25.4,27.9,23.3,18.2,76,68,57,30.18,30.02,26,10,26,0.00
2013-12-27,47.3,36.6,25.1,30.6,25.1,17.3,81,64,43,30.17,29.97,24,9,25,0.00
2013-12-28,47.3,39.2,30.3,33.5,29.5,24.9,82,68,52,29.97,29.65,36,14,37,0.00
2013-12-29,29.7,16.0,10.2,24.9,2.2,-5.3,82,55,37,30.26,29.90,33,10,37,0.00
2013-12-30,37.0,22.9,8.8,23.1,10.5,-2.8,69,58,49,30.18,30.03,25,8,25,0.00
2013-12-31,50.7,36.7,23.0,27.6,23.9,17.1,81,61,38,30.16,29.81,45,13,45,0.00
2014-1-1,35.5,17.4,7.9,27.0,12.6,2.5,89,81,68,30.29,29.80,29,10,32,0.00
2014-1-2,26.4,13.8,3.0,15.9,7.7,-2.3,85,76,63,30.33,30.23,12,4,13,0.01